sensor_id;sensor_type;location;lat;lon;timestamp;temperature;humidity
25248;DHT22;13191;47.472;11.214;2023-06-24T00:00:34;14.70;99.90
25248;DHT22;13191;47.472;11.214;2023-06-24T00:03:00;14.60;99.90
25248;DHT22;13191;47.472;11.214;2023-06-24T00:05:27;14.60;99.90
25248;DHT22;13191;47.472;11.214;2023-06-24T00:07:53;14.60;99.90
25248;DHT22;13191;47.472;11.214;2023-06-24T00:10:22;14.60;99.90
25248;DHT22;13191;47.472;11.214;2023-06-24T00:12:47;14.50;99.90
25248;DHT22;13191;47.472;11.214;2023-06-24T00:15:13;14.60;99.90
25248;DHT22;13191;47.472;11.214;2023-06-24T00:17:38;14.50;99.90
25248;DHT22;13191;47.472;11.214;2023-06-24T00:20:04;14.50;99.90
25248;DHT22;13191;47.472;11.214;2023-06-24T00:22:32;14.50;99.90
25248;DHT22;13191;47.472;11.214;2023-06-24T00:24:57;14.50;99.90
25248;DHT22;13191;47.472;11.214;2023-06-24T00:27:24;14.50;99.90
25248;DHT22;13191;47.472;11.214;2023-06-24T00:29:50;14.50;99.90
25248;DHT22;13191;47.472;11.214;2023-06-24T00:32:15;14.50;99.90
25248;DHT22;13191;47.472;11.214;2023-06-24T00:34:41;14.50;99.90
25248;DHT22;13191;47.472;11.214;2023-06-24T00:37:12;14.50;99.90
25248;DHT22;13191;47.472;11.214;2023-06-24T00:39:38;14.50;99.90
25248;DHT22;13191;47.472;11.214;2023-06-24T00:42:03;14.50;99.90
25248;DHT22;13191;47.472;11.214;2023-06-24T00:44:29;14.50;99.90
25248;DHT22;13191;47.472;11.214;2023-06-24T00:46:55;14.50;99.90
25248;DHT22;13191;47.472;11.214;2023-06-24T00:49:20;14.60;99.90
25248;DHT22;13191;47.472;11.214;2023-06-24T00:51:46;14.60;99.90
25248;DHT22;13191;47.472;11.214;2023-06-24T00:54:16;14.50;99.90
25248;DHT22;13191;47.472;11.214;2023-06-24T00:56:41;14.50;99.90
25248;DHT22;13191;47.472;11.214;2023-06-24T00:59:08;14.50;99.90
25248;DHT22;13191;47.472;11.214;2023-06-24T01:01:34;14.50;99.90
25248;DHT22;13191;47.472;11.214;2023-06-24T01:04:03;14.50;99.90
25248;DHT22;13191;47.472;11.214;2023-06-24T01:06:29;14.50;99.90
25248;DHT22;13191;47.472;11.214;2023-06-24T01:08:58;14.40;99.90
25248;DHT22;13191;47.472;11.214;2023-06-24T01:11:26;14.40;99.90
25248;DHT22;13191;47.472;11.214;2023-06-24T01:13:51;14.40;99.90
25248;DHT22;13191;47.472;11.214;2023-06-24T01:16:21;14.40;99.90
25248;DHT22;13191;47.472;11.214;2023-06-24T01:18:50;14.40;99.90
25248;DHT22;13191;47.472;11.214;2023-06-24T01:21:38;14.50;99.90
25248;DHT22;13191;47.472;11.214;2023-06-24T01:26:33;14.40;99.90
25248;DHT22;13191;47.472;11.214;2023-06-24T01:34:07;14.40;99.90
25248;DHT22;13191;47.472;11.214;2023-06-24T01:36:34;14.40;99.90
25248;DHT22;13191;47.472;11.214;2023-06-24T01:39:02;14.40;99.90
25248;DHT22;13191;47.472;11.214;2023-06-24T01:41:31;14.30;99.90
25248;DHT22;13191;47.472;11.214;2023-06-24T01:43:57;14.30;99.90
25248;DHT22;13191;47.472;11.214;2023-06-24T01:46:23;14.30;99.90
25248;DHT22;13191;47.472;11.214;2023-06-24T01:48:50;14.20;99.90
25248;DHT22;13191;47.472;11.214;2023-06-24T01:51:19;14.20;99.90
25248;DHT22;13191;47.472;11.214;2023-06-24T01:53:48;14.20;99.90
25248;DHT22;13191;47.472;11.214;2023-06-24T01:56:15;14.20;99.90
25248;DHT22;13191;47.472;11.214;2023-06-24T01:58:41;14.10;99.90
25248;DHT22;13191;47.472;11.214;2023-06-24T02:01:07;14.10;99.90
25248;DHT22;13191;47.472;11.214;2023-06-24T02:03:33;14.10;99.90
25248;DHT22;13191;47.472;11.214;2023-06-24T02:05:59;14.10;99.90
25248;DHT22;13191;47.472;11.214;2023-06-24T02:08:26;14.10;99.90
25248;DHT22;13191;47.472;11.214;2023-06-24T02:10:54;14.10;99.90
25248;DHT22;13191;47.472;11.214;2023-06-24T02:13:20;14.10;99.90
25248;DHT22;13191;47.472;11.214;2023-06-24T02:15:46;14.00;99.90
25248;DHT22;13191;47.472;11.214;2023-06-24T02:18:12;14.00;99.90
25248;DHT22;13191;47.472;11.214;2023-06-24T02:20:40;14.00;99.90
25248;DHT22;13191;47.472;11.214;2023-06-24T02:23:07;14.00;99.90
25248;DHT22;13191;47.472;11.214;2023-06-24T02:25:34;14.00;99.90
25248;DHT22;13191;47.472;11.214;2023-06-24T02:28:04;14.00;99.90
25248;DHT22;13191;47.472;11.214;2023-06-24T02:30:30;14.00;99.90
25248;DHT22;13191;47.472;11.214;2023-06-24T02:32:55;14.00;99.90
25248;DHT22;13191;47.472;11.214;2023-06-24T02:35:22;14.00;99.90
25248;DHT22;13191;47.472;11.214;2023-06-24T02:37:47;13.90;99.90
25248;DHT22;13191;47.472;11.214;2023-06-24T02:40:13;14.00;99.90
25248;DHT22;13191;47.472;11.214;2023-06-24T02:42:38;13.90;99.90
25248;DHT22;13191;47.472;11.214;2023-06-24T02:45:04;14.00;99.90
25248;DHT22;13191;47.472;11.214;2023-06-24T02:47:30;14.00;99.90
25248;DHT22;13191;47.472;11.214;2023-06-24T02:49:56;13.90;99.90
25248;DHT22;13191;47.472;11.214;2023-06-24T02:52:23;14.00;99.90
25248;DHT22;13191;47.472;11.214;2023-06-24T02:54:49;14.00;99.90
25248;DHT22;13191;47.472;11.214;2023-06-24T02:57:14;14.00;99.90
25248;DHT22;13191;47.472;11.214;2023-06-24T02:59:40;14.00;99.90
25248;DHT22;13191;47.472;11.214;2023-06-24T03:02:06;13.90;99.90
25248;DHT22;13191;47.472;11.214;2023-06-24T03:04:32;14.00;99.90
25248;DHT22;13191;47.472;11.214;2023-06-24T03:06:58;14.00;99.90
25248;DHT22;13191;47.472;11.214;2023-06-24T03:09:26;14.00;99.90
25248;DHT22;13191;47.472;11.214;2023-06-24T03:11:52;14.00;99.90
25248;DHT22;13191;47.472;11.214;2023-06-24T03:14:17;14.00;99.90
25248;DHT22;13191;47.472;11.214;2023-06-24T03:16:42;14.00;99.90
25248;DHT22;13191;47.472;11.214;2023-06-24T03:19:08;14.10;99.90
25248;DHT22;13191;47.472;11.214;2023-06-24T03:21:33;14.00;99.90
25248;DHT22;13191;47.472;11.214;2023-06-24T03:23:59;14.10;99.90
25248;DHT22;13191;47.472;11.214;2023-06-24T03:26:31;14.10;99.90
25248;DHT22;13191;47.472;11.214;2023-06-24T03:28:57;14.10;99.90
25248;DHT22;13191;47.472;11.214;2023-06-24T03:31:23;14.00;99.90
25248;DHT22;13191;47.472;11.214;2023-06-24T03:33:48;14.00;99.90
25248;DHT22;13191;47.472;11.214;2023-06-24T03:36:14;13.90;99.90
25248;DHT22;13191;47.472;11.214;2023-06-24T03:38:39;13.80;99.90
25248;DHT22;13191;47.472;11.214;2023-06-24T03:41:06;13.90;99.90
25248;DHT22;13191;47.472;11.214;2023-06-24T03:43:31;13.90;99.90
25248;DHT22;13191;47.472;11.214;2023-06-24T03:45:57;13.90;99.90
25248;DHT22;13191;47.472;11.214;2023-06-24T03:48:22;13.90;99.90
25248;DHT22;13191;47.472;11.214;2023-06-24T03:50:48;13.90;99.90
25248;DHT22;13191;47.472;11.214;2023-06-24T03:53:13;13.90;99.90
25248;DHT22;13191;47.472;11.214;2023-06-24T03:55:39;13.90;99.90
25248;DHT22;13191;47.472;11.214;2023-06-24T03:58:04;13.90;99.90
25248;DHT22;13191;47.472;11.214;2023-06-24T04:00:29;13.90;99.90
25248;DHT22;13191;47.472;11.214;2023-06-24T04:02:55;13.80;99.90
25248;DHT22;13191;47.472;11.214;2023-06-24T04:05:20;13.80;99.90
25248;DHT22;13191;47.472;11.214;2023-06-24T04:07:50;13.80;99.90
25248;DHT22;13191;47.472;11.214;2023-06-24T04:10:16;13.70;99.90
25248;DHT22;13191;47.472;11.214;2023-06-24T04:12:42;13.60;99.90
25248;DHT22;13191;47.472;11.214;2023-06-24T04:15:08;13.50;99.90
25248;DHT22;13191;47.472;11.214;2023-06-24T04:17:33;13.50;99.90
25248;DHT22;13191;47.472;11.214;2023-06-24T04:19:59;13.40;99.90
25248;DHT22;13191;47.472;11.214;2023-06-24T04:22:24;13.40;99.90
25248;DHT22;13191;47.472;11.214;2023-06-24T04:24:50;13.40;99.90
25248;DHT22;13191;47.472;11.214;2023-06-24T04:27:16;13.40;99.90
25248;DHT22;13191;47.472;11.214;2023-06-24T04:29:41;13.30;99.90
25248;DHT22;13191;47.472;11.214;2023-06-24T04:32:07;13.30;99.90
25248;DHT22;13191;47.472;11.214;2023-06-24T04:34:32;13.30;99.90
25248;DHT22;13191;47.472;11.214;2023-06-24T04:36:58;13.20;99.90
25248;DHT22;13191;47.472;11.214;2023-06-24T04:39:23;13.20;99.90
25248;DHT22;13191;47.472;11.214;2023-06-24T04:41:49;13.30;99.90
25248;DHT22;13191;47.472;11.214;2023-06-24T04:44:14;13.20;99.90
25248;DHT22;13191;47.472;11.214;2023-06-24T04:46:39;13.20;99.90
25248;DHT22;13191;47.472;11.214;2023-06-24T04:49:10;13.20;99.90
25248;DHT22;13191;47.472;11.214;2023-06-24T04:51:35;13.20;99.90
25248;DHT22;13191;47.472;11.214;2023-06-24T04:54:02;13.30;99.90
25248;DHT22;13191;47.472;11.214;2023-06-24T04:56:27;13.30;99.90
25248;DHT22;13191;47.472;11.214;2023-06-24T04:58:53;13.40;99.90
25248;DHT22;13191;47.472;11.214;2023-06-24T05:01:19;13.50;99.90
25248;DHT22;13191;47.472;11.214;2023-06-24T05:03:44;13.50;99.90
25248;DHT22;13191;47.472;11.214;2023-06-24T05:06:10;13.50;99.90
25248;DHT22;13191;47.472;11.214;2023-06-24T05:08:35;13.60;99.90
25248;DHT22;13191;47.472;11.214;2023-06-24T05:11:00;13.50;99.90
25248;DHT22;13191;47.472;11.214;2023-06-24T05:13:27;13.60;99.90
25248;DHT22;13191;47.472;11.214;2023-06-24T05:15:52;13.70;99.90
25248;DHT22;13191;47.472;11.214;2023-06-24T05:18:18;13.70;99.90
25248;DHT22;13191;47.472;11.214;2023-06-24T05:20:43;13.70;99.90
25248;DHT22;13191;47.472;11.214;2023-06-24T05:23:09;13.70;99.90
25248;DHT22;13191;47.472;11.214;2023-06-24T05:25:34;13.80;99.90
25248;DHT22;13191;47.472;11.214;2023-06-24T05:28:00;13.80;99.90
25248;DHT22;13191;47.472;11.214;2023-06-24T05:30:26;13.90;99.90
25248;DHT22;13191;47.472;11.214;2023-06-24T05:32:51;13.90;99.90
25248;DHT22;13191;47.472;11.214;2023-06-24T05:35:17;13.90;99.90
25248;DHT22;13191;47.472;11.214;2023-06-24T05:37:42;13.90;99.90
25248;DHT22;13191;47.472;11.214;2023-06-24T05:40:08;13.90;99.90
25248;DHT22;13191;47.472;11.214;2023-06-24T05:42:35;14.00;99.90
25248;DHT22;13191;47.472;11.214;2023-06-24T05:45:00;14.10;99.90
25248;DHT22;13191;47.472;11.214;2023-06-24T05:47:26;14.10;99.90
25248;DHT22;13191;47.472;11.214;2023-06-24T05:49:51;14.10;99.90
25248;DHT22;13191;47.472;11.214;2023-06-24T05:52:16;14.20;99.90
25248;DHT22;13191;47.472;11.214;2023-06-24T05:54:42;14.20;99.90
25248;DHT22;13191;47.472;11.214;2023-06-24T05:57:07;14.20;99.90
25248;DHT22;13191;47.472;11.214;2023-06-24T05:59:34;14.30;99.90
25248;DHT22;13191;47.472;11.214;2023-06-24T06:01:59;14.30;99.90
25248;DHT22;13191;47.472;11.214;2023-06-24T06:04:27;14.30;99.90
25248;DHT22;13191;47.472;11.214;2023-06-24T06:06:52;14.30;99.90
25248;DHT22;13191;47.472;11.214;2023-06-24T06:09:18;14.20;99.90
25248;DHT22;13191;47.472;11.214;2023-06-24T06:11:43;14.30;99.90
25248;DHT22;13191;47.472;11.214;2023-06-24T06:14:09;14.30;99.90
25248;DHT22;13191;47.472;11.214;2023-06-24T06:16:34;14.30;99.90
25248;DHT22;13191;47.472;11.214;2023-06-24T06:18:59;14.30;99.90
25248;DHT22;13191;47.472;11.214;2023-06-24T06:21:25;14.20;99.90
25248;DHT22;13191;47.472;11.214;2023-06-24T06:23:50;14.20;99.90
25248;DHT22;13191;47.472;11.214;2023-06-24T06:26:16;14.30;99.90
25248;DHT22;13191;47.472;11.214;2023-06-24T06:28:41;14.30;99.90
25248;DHT22;13191;47.472;11.214;2023-06-24T06:31:07;14.40;99.90
25248;DHT22;13191;47.472;11.214;2023-06-24T06:33:32;14.40;99.90
25248;DHT22;13191;47.472;11.214;2023-06-24T06:35:58;14.50;99.90
25248;DHT22;13191;47.472;11.214;2023-06-24T06:38:24;14.50;99.90
25248;DHT22;13191;47.472;11.214;2023-06-24T06:40:49;14.50;99.90
25248;DHT22;13191;47.472;11.214;2023-06-24T06:43:15;14.50;99.90
25248;DHT22;13191;47.472;11.214;2023-06-24T06:45:40;14.50;99.90
25248;DHT22;13191;47.472;11.214;2023-06-24T06:48:06;14.60;99.90
25248;DHT22;13191;47.472;11.214;2023-06-24T06:50:33;14.60;99.90
25248;DHT22;13191;47.472;11.214;2023-06-24T06:52:59;14.70;99.90
25248;DHT22;13191;47.472;11.214;2023-06-24T06:55:24;14.70;99.90
25248;DHT22;13191;47.472;11.214;2023-06-24T06:57:50;14.80;99.90
25248;DHT22;13191;47.472;11.214;2023-06-24T07:00:15;14.90;99.90
25248;DHT22;13191;47.472;11.214;2023-06-24T07:02:41;14.90;99.90
25248;DHT22;13191;47.472;11.214;2023-06-24T07:05:06;14.90;99.90
25248;DHT22;13191;47.472;11.214;2023-06-24T07:07:32;14.90;99.90
25248;DHT22;13191;47.472;11.214;2023-06-24T07:09:58;15.00;99.90
25248;DHT22;13191;47.472;11.214;2023-06-24T07:12:23;15.00;99.90
25248;DHT22;13191;47.472;11.214;2023-06-24T07:14:50;15.00;99.90
25248;DHT22;13191;47.472;11.214;2023-06-24T07:17:15;15.00;99.90
25248;DHT22;13191;47.472;11.214;2023-06-24T07:19:41;15.00;99.90
25248;DHT22;13191;47.472;11.214;2023-06-24T07:22:06;15.10;99.90
25248;DHT22;13191;47.472;11.214;2023-06-24T07:24:32;15.10;99.90
25248;DHT22;13191;47.472;11.214;2023-06-24T07:26:57;15.10;99.90
25248;DHT22;13191;47.472;11.214;2023-06-24T07:29:23;15.10;99.90
25248;DHT22;13191;47.472;11.214;2023-06-24T07:31:48;15.10;99.90
25248;DHT22;13191;47.472;11.214;2023-06-24T07:34:14;15.10;99.90
25248;DHT22;13191;47.472;11.214;2023-06-24T07:36:39;15.20;99.90
25248;DHT22;13191;47.472;11.214;2023-06-24T07:39:05;15.20;99.90
25248;DHT22;13191;47.472;11.214;2023-06-24T07:41:31;15.30;99.90
25248;DHT22;13191;47.472;11.214;2023-06-24T07:43:57;15.40;99.90
25248;DHT22;13191;47.472;11.214;2023-06-24T07:46:22;15.40;99.90
25248;DHT22;13191;47.472;11.214;2023-06-24T07:48:48;15.50;99.90
25248;DHT22;13191;47.472;11.214;2023-06-24T07:51:13;15.60;99.90
25248;DHT22;13191;47.472;11.214;2023-06-24T07:53:39;15.60;99.90
25248;DHT22;13191;47.472;11.214;2023-06-24T07:56:04;15.60;99.90
25248;DHT22;13191;47.472;11.214;2023-06-24T07:58:30;15.70;99.90
25248;DHT22;13191;47.472;11.214;2023-06-24T08:00:55;15.80;99.90
25248;DHT22;13191;47.472;11.214;2023-06-24T08:03:21;15.80;99.90
25248;DHT22;13191;47.472;11.214;2023-06-24T08:05:47;15.90;99.90
25248;DHT22;13191;47.472;11.214;2023-06-24T08:08:14;16.00;99.90
25248;DHT22;13191;47.472;11.214;2023-06-24T08:10:39;16.10;99.90
25248;DHT22;13191;47.472;11.214;2023-06-24T08:13:05;16.20;99.90
25248;DHT22;13191;47.472;11.214;2023-06-24T08:15:30;16.20;99.90
25248;DHT22;13191;47.472;11.214;2023-06-24T08:17:55;16.30;99.90
25248;DHT22;13191;47.472;11.214;2023-06-24T08:20:21;16.40;99.90
25248;DHT22;13191;47.472;11.214;2023-06-24T08:22:47;16.40;99.90
25248;DHT22;13191;47.472;11.214;2023-06-24T08:25:13;16.50;99.90
25248;DHT22;13191;47.472;11.214;2023-06-24T08:27:38;16.50;99.90
25248;DHT22;13191;47.472;11.214;2023-06-24T08:30:07;16.60;99.90
25248;DHT22;13191;47.472;11.214;2023-06-24T08:32:32;16.70;99.90
25248;DHT22;13191;47.472;11.214;2023-06-24T08:34:58;16.80;99.90
25248;DHT22;13191;47.472;11.214;2023-06-24T08:37:23;16.80;99.90
25248;DHT22;13191;47.472;11.214;2023-06-24T08:39:49;16.90;99.90
25248;DHT22;13191;47.472;11.214;2023-06-24T08:42:14;17.00;99.90
25248;DHT22;13191;47.472;11.214;2023-06-24T08:44:40;17.00;99.90
25248;DHT22;13191;47.472;11.214;2023-06-24T08:47:05;17.10;99.90
25248;DHT22;13191;47.472;11.214;2023-06-24T08:49:31;17.10;99.90
25248;DHT22;13191;47.472;11.214;2023-06-24T08:52:03;17.20;99.90
25248;DHT22;13191;47.472;11.214;2023-06-24T08:54:30;17.20;99.90
25248;DHT22;13191;47.472;11.214;2023-06-24T08:56:55;17.30;99.90
25248;DHT22;13191;47.472;11.214;2023-06-24T08:59:21;17.40;99.90
25248;DHT22;13191;47.472;11.214;2023-06-24T09:01:46;17.40;99.90
25248;DHT22;13191;47.472;11.214;2023-06-24T09:04:12;17.50;99.90
25248;DHT22;13191;47.472;11.214;2023-06-24T09:06:37;17.50;99.90
25248;DHT22;13191;47.472;11.214;2023-06-24T09:09:03;17.60;99.90
25248;DHT22;13191;47.472;11.214;2023-06-24T09:11:30;17.60;99.90
25248;DHT22;13191;47.472;11.214;2023-06-24T09:13:57;17.70;99.90
25248;DHT22;13191;47.472;11.214;2023-06-24T09:16:23;17.80;99.90
25248;DHT22;13191;47.472;11.214;2023-06-24T09:18:54;17.80;99.90
25248;DHT22;13191;47.472;11.214;2023-06-24T09:21:29;17.80;99.90
25248;DHT22;13191;47.472;11.214;2023-06-24T09:24:00;17.90;99.90
25248;DHT22;13191;47.472;11.214;2023-06-24T09:26:26;18.00;99.90
25248;DHT22;13191;47.472;11.214;2023-06-24T09:28:51;18.10;99.90
25248;DHT22;13191;47.472;11.214;2023-06-24T09:31:17;18.20;99.90
25248;DHT22;13191;47.472;11.214;2023-06-24T09:33:43;18.30;99.90
25248;DHT22;13191;47.472;11.214;2023-06-24T09:36:17;18.40;99.90
25248;DHT22;13191;47.472;11.214;2023-06-24T09:38:43;18.40;99.90
25248;DHT22;13191;47.472;11.214;2023-06-24T09:41:09;18.50;99.90
25248;DHT22;13191;47.472;11.214;2023-06-24T09:43:35;18.60;99.90
25248;DHT22;13191;47.472;11.214;2023-06-24T09:46:02;18.70;99.90
25248;DHT22;13191;47.472;11.214;2023-06-24T09:48:28;18.70;99.90
25248;DHT22;13191;47.472;11.214;2023-06-24T09:50:58;18.80;99.90
25248;DHT22;13191;47.472;11.214;2023-06-24T09:53:24;18.80;99.90
25248;DHT22;13191;47.472;11.214;2023-06-24T09:55:50;18.90;99.90
25248;DHT22;13191;47.472;11.214;2023-06-24T09:58:16;19.00;99.90
25248;DHT22;13191;47.472;11.214;2023-06-24T10:00:42;19.00;99.90
25248;DHT22;13191;47.472;11.214;2023-06-24T10:03:07;19.00;99.90
25248;DHT22;13191;47.472;11.214;2023-06-24T10:05:33;19.00;99.90
25248;DHT22;13191;47.472;11.214;2023-06-24T10:07:59;19.10;99.90
25248;DHT22;13191;47.472;11.214;2023-06-24T10:10:24;19.20;99.90
25248;DHT22;13191;47.472;11.214;2023-06-24T10:12:50;19.10;99.90
25248;DHT22;13191;47.472;11.214;2023-06-24T10:15:15;19.10;99.90
25248;DHT22;13191;47.472;11.214;2023-06-24T10:17:41;19.20;99.90
25248;DHT22;13191;47.472;11.214;2023-06-24T10:20:06;19.40;99.90
25248;DHT22;13191;47.472;11.214;2023-06-24T10:22:32;19.50;99.90
25248;DHT22;13191;47.472;11.214;2023-06-24T10:25:00;19.70;99.90
25248;DHT22;13191;47.472;11.214;2023-06-24T10:27:26;19.80;99.90
25248;DHT22;13191;47.472;11.214;2023-06-24T10:29:55;19.90;99.90
25248;DHT22;13191;47.472;11.214;2023-06-24T10:32:23;20.00;99.90
25248;DHT22;13191;47.472;11.214;2023-06-24T10:34:55;20.00;99.90
25248;DHT22;13191;47.472;11.214;2023-06-24T10:37:22;20.10;99.90
25248;DHT22;13191;47.472;11.214;2023-06-24T10:44:53;20.50;99.90
25248;DHT22;13191;47.472;11.214;2023-06-24T10:47:21;20.50;99.90
25248;DHT22;13191;47.472;11.214;2023-06-24T10:49:46;20.50;99.90
25248;DHT22;13191;47.472;11.214;2023-06-24T10:52:12;20.60;99.90
25248;DHT22;13191;47.472;11.214;2023-06-24T10:54:38;20.70;99.90
25248;DHT22;13191;47.472;11.214;2023-06-24T10:57:04;20.80;99.90
25248;DHT22;13191;47.472;11.214;2023-06-24T10:59:43;20.90;99.90
25248;DHT22;13191;47.472;11.214;2023-06-24T11:02:15;20.90;99.90
25248;DHT22;13191;47.472;11.214;2023-06-24T11:04:48;21.10;99.90
25248;DHT22;13191;47.472;11.214;2023-06-24T11:07:14;21.20;99.90
25248;DHT22;13191;47.472;11.214;2023-06-24T11:09:40;21.10;99.90
25248;DHT22;13191;47.472;11.214;2023-06-24T11:12:06;21.10;99.90
25248;DHT22;13191;47.472;11.214;2023-06-24T11:14:33;21.00;99.90
25248;DHT22;13191;47.472;11.214;2023-06-24T11:17:03;21.00;99.90
25248;DHT22;13191;47.472;11.214;2023-06-24T11:19:29;21.00;99.90
25248;DHT22;13191;47.472;11.214;2023-06-24T11:21:54;21.00;99.90
25248;DHT22;13191;47.472;11.214;2023-06-24T11:24:22;21.10;99.90
25248;DHT22;13191;47.472;11.214;2023-06-24T11:26:47;21.10;99.90
25248;DHT22;13191;47.472;11.214;2023-06-24T11:29:13;21.20;99.90
25248;DHT22;13191;47.472;11.214;2023-06-24T11:31:38;21.30;99.90
25248;DHT22;13191;47.472;11.214;2023-06-24T11:34:04;21.30;99.90
25248;DHT22;13191;47.472;11.214;2023-06-24T11:36:29;21.30;99.90
25248;DHT22;13191;47.472;11.214;2023-06-24T11:38:55;21.30;99.90
25248;DHT22;13191;47.472;11.214;2023-06-24T11:41:21;21.20;99.90
25248;DHT22;13191;47.472;11.214;2023-06-24T11:43:47;21.20;99.90
25248;DHT22;13191;47.472;11.214;2023-06-24T11:48:47;21.50;99.90
25248;DHT22;13191;47.472;11.214;2023-06-24T11:51:13;21.50;99.90
25248;DHT22;13191;47.472;11.214;2023-06-24T11:53:45;21.60;99.90
25248;DHT22;13191;47.472;11.214;2023-06-24T11:56:13;21.60;99.90
25248;DHT22;13191;47.472;11.214;2023-06-24T11:58:39;21.60;99.90
25248;DHT22;13191;47.472;11.214;2023-06-24T12:01:06;21.70;99.90
25248;DHT22;13191;47.472;11.214;2023-06-24T12:03:33;21.80;99.90
25248;DHT22;13191;47.472;11.214;2023-06-24T12:05:59;21.90;99.90
25248;DHT22;13191;47.472;11.214;2023-06-24T12:08:25;22.00;99.90
25248;DHT22;13191;47.472;11.214;2023-06-24T12:10:51;22.20;99.90
25248;DHT22;13191;47.472;11.214;2023-06-24T12:13:16;22.30;99.90
25248;DHT22;13191;47.472;11.214;2023-06-24T12:15:42;22.40;99.90
25248;DHT22;13191;47.472;11.214;2023-06-24T12:18:12;22.50;99.90
25248;DHT22;13191;47.472;11.214;2023-06-24T12:20:37;22.60;99.90
25248;DHT22;13191;47.472;11.214;2023-06-24T12:23:07;22.80;99.90
25248;DHT22;13191;47.472;11.214;2023-06-24T12:25:32;22.80;99.90
25248;DHT22;13191;47.472;11.214;2023-06-24T12:27:58;22.90;99.90
25248;DHT22;13191;47.472;11.214;2023-06-24T12:30:27;22.70;99.90
25248;DHT22;13191;47.472;11.214;2023-06-24T12:32:52;22.60;99.90
25248;DHT22;13191;47.472;11.214;2023-06-24T12:35:18;22.50;99.90
25248;DHT22;13191;47.472;11.214;2023-06-24T12:37:43;22.40;99.90
25248;DHT22;13191;47.472;11.214;2023-06-24T12:40:10;22.30;99.90
25248;DHT22;13191;47.472;11.214;2023-06-24T12:42:36;22.20;99.90
25248;DHT22;13191;47.472;11.214;2023-06-24T12:45:02;22.20;99.90
25248;DHT22;13191;47.472;11.214;2023-06-24T12:47:28;22.10;99.90
25248;DHT22;13191;47.472;11.214;2023-06-24T12:49:53;22.10;99.90
25248;DHT22;13191;47.472;11.214;2023-06-24T12:52:19;22.10;99.90
25248;DHT22;13191;47.472;11.214;2023-06-24T12:54:44;22.10;99.90
25248;DHT22;13191;47.472;11.214;2023-06-24T12:57:10;21.90;99.90
25248;DHT22;13191;47.472;11.214;2023-06-24T12:59:36;21.90;99.90
25248;DHT22;13191;47.472;11.214;2023-06-24T13:02:01;21.80;99.90
25248;DHT22;13191;47.472;11.214;2023-06-24T13:04:27;21.90;99.90
25248;DHT22;13191;47.472;11.214;2023-06-24T13:06:52;21.80;99.90
25248;DHT22;13191;47.472;11.214;2023-06-24T13:09:18;21.80;99.90
25248;DHT22;13191;47.472;11.214;2023-06-24T13:11:43;21.80;99.90
25248;DHT22;13191;47.472;11.214;2023-06-24T13:14:09;21.70;99.90
25248;DHT22;13191;47.472;11.214;2023-06-24T13:16:35;21.70;99.90
25248;DHT22;13191;47.472;11.214;2023-06-24T13:19:01;21.60;99.90
25248;DHT22;13191;47.472;11.214;2023-06-24T13:21:26;21.70;99.90
25248;DHT22;13191;47.472;11.214;2023-06-24T13:23:52;21.70;99.90
25248;DHT22;13191;47.472;11.214;2023-06-24T13:26:17;21.80;99.90
25248;DHT22;13191;47.472;11.214;2023-06-24T13:28:43;21.80;99.90
25248;DHT22;13191;47.472;11.214;2023-06-24T13:31:09;21.70;99.90
25248;DHT22;13191;47.472;11.214;2023-06-24T13:33:34;21.70;99.90
25248;DHT22;13191;47.472;11.214;2023-06-24T13:35:59;21.70;99.90
25248;DHT22;13191;47.472;11.214;2023-06-24T13:38:25;21.80;99.90
25248;DHT22;13191;47.472;11.214;2023-06-24T13:40:50;21.80;99.90
25248;DHT22;13191;47.472;11.214;2023-06-24T13:43:17;21.90;99.90
25248;DHT22;13191;47.472;11.214;2023-06-24T13:45:42;22.00;99.90
25248;DHT22;13191;47.472;11.214;2023-06-24T13:48:08;22.00;99.90
25248;DHT22;13191;47.472;11.214;2023-06-24T13:50:33;22.00;99.90
25248;DHT22;13191;47.472;11.214;2023-06-24T13:52:59;22.00;99.90
25248;DHT22;13191;47.472;11.214;2023-06-24T13:55:24;22.00;99.90
25248;DHT22;13191;47.472;11.214;2023-06-24T13:57:50;21.90;99.90
25248;DHT22;13191;47.472;11.214;2023-06-24T14:00:16;22.00;99.90
25248;DHT22;13191;47.472;11.214;2023-06-24T14:02:41;22.10;99.90
25248;DHT22;13191;47.472;11.214;2023-06-24T14:05:07;22.10;99.90
25248;DHT22;13191;47.472;11.214;2023-06-24T14:07:33;22.20;99.90
25248;DHT22;13191;47.472;11.214;2023-06-24T14:09:58;22.20;99.90
25248;DHT22;13191;47.472;11.214;2023-06-24T14:12:24;22.20;99.90
25248;DHT22;13191;47.472;11.214;2023-06-24T14:14:49;22.30;99.90
25248;DHT22;13191;47.472;11.214;2023-06-24T14:17:15;22.40;99.90
25248;DHT22;13191;47.472;11.214;2023-06-24T14:19:40;22.40;99.90
25248;DHT22;13191;47.472;11.214;2023-06-24T14:22:06;22.30;99.90
25248;DHT22;13191;47.472;11.214;2023-06-24T14:24:32;22.20;99.90
25248;DHT22;13191;47.472;11.214;2023-06-24T14:26:58;22.30;99.90
25248;DHT22;13191;47.472;11.214;2023-06-24T14:29:23;22.50;99.90
25248;DHT22;13191;47.472;11.214;2023-06-24T14:31:49;22.40;99.90
25248;DHT22;13191;47.472;11.214;2023-06-24T14:34:14;22.40;99.90
25248;DHT22;13191;47.472;11.214;2023-06-24T14:36:40;22.40;99.90
25248;DHT22;13191;47.472;11.214;2023-06-24T14:39:05;22.10;99.90
25248;DHT22;13191;47.472;11.214;2023-06-24T14:41:31;22.00;99.90
25248;DHT22;13191;47.472;11.214;2023-06-24T14:43:57;21.90;99.90
25248;DHT22;13191;47.472;11.214;2023-06-24T14:46:22;21.90;99.90
25248;DHT22;13191;47.472;11.214;2023-06-24T14:48:48;22.10;99.90
25248;DHT22;13191;47.472;11.214;2023-06-24T14:51:13;22.00;99.90
25248;DHT22;13191;47.472;11.214;2023-06-24T14:53:39;22.20;99.90
25248;DHT22;13191;47.472;11.214;2023-06-24T14:56:05;22.40;99.90
25248;DHT22;13191;47.472;11.214;2023-06-24T14:58:31;22.70;99.90
25248;DHT22;13191;47.472;11.214;2023-06-24T15:00:56;22.90;99.90
25248;DHT22;13191;47.472;11.214;2023-06-24T15:03:22;23.00;99.90
25248;DHT22;13191;47.472;11.214;2023-06-24T15:05:47;22.90;99.90
25248;DHT22;13191;47.472;11.214;2023-06-24T15:08:13;22.90;99.90
25248;DHT22;13191;47.472;11.214;2023-06-24T15:10:38;22.90;99.90
25248;DHT22;13191;47.472;11.214;2023-06-24T15:13:04;23.10;99.90
25248;DHT22;13191;47.472;11.214;2023-06-24T15:15:31;23.30;99.90
25248;DHT22;13191;47.472;11.214;2023-06-24T15:17:56;23.60;99.90
25248;DHT22;13191;47.472;11.214;2023-06-24T15:20:22;23.80;99.90
25248;DHT22;13191;47.472;11.214;2023-06-24T15:22:47;24.00;99.90